METAR Data
IDs: Format: Raw Decoded Include TAF

Data at: 0003 UTC 24 Oct 2019

KCAV 232355Z AUTO 34006KT 10SM OVC033 03/03 A3004 RMK A01
KCAV 232335Z AUTO 34006KT OVC030 03/03 A3003 RMK A01
KCAV 232315Z AUTO 35006KT 10SM FEW021 BKN027 OVC032 03/03 A3001 RMK A01
KCAV 232255Z AUTO 36007KT 9SM FEW009 BKN028 OVC040 03/03 A3000 RMK A01 P0001
KCAV 232235Z AUTO 01010G16KT 7SM SCT028 SCT033 SCT040 03/02 A2999 RMK A01
KCAV 232215Z AUTO 01011KT 4SM BR SCT008 BKN012 BKN028 04/03 A2998 RMK A01
KCAV 232155Z AUTO 01010G15KT 2 1/2SM BR SCT008 SCT012 BKN041 04/03 A2997 RMK A01 P0001
KCAV 232135Z AUTO 01012KT 3SM BR OVC041 04/03 A2995 RMK A01
KCAV 232115Z AUTO 36010KT 10SM OVC041 04/03 A2994 RMK A01
KCAV 232055Z AUTO 01009KT 10SM OVC044 05/03 A2993 RMK A01
KCAV 232035Z AUTO 03013KT 10SM FEW013 OVC049 05/03 A2991 RMK A01
KCAV 232015Z AUTO 01012KT 10SM FEW016 FEW027 BKN050 05/03 A2991 RMK A01
KCAV 231955Z AUTO 01011KT 9SM FEW017 05/03 A2991 RMK A01 P0006
KCAV 231935Z AUTO 36009G14KT 6SM BR FEW021 FEW026 05/03 A2991 RMK A01
KCAV 231915Z AUTO 34008KT 5SM HZ BKN021 BKN027 06/03 A2992 RMK A01
KCAV 231855Z AUTO 33009G14KT 4SM HZ SCT021 BKN028 BKN035 06/03 A2992 RMK A01 P0002
KCAV 231835Z AUTO 33006G13KT 10SM SCT028 BKN035 BKN041 07/02 A2991 RMK A01
KCAV 231815Z AUTO 34011G17KT 7SM FEW026 SCT032 BKN038 08/02 A2991 RMK A01
KCAV 231755Z AUTO 34012KT 10SM FEW036 BKN055 OVC065 09/00 A2989 RMK A01
KCAV 231735Z AUTO 04009KT 10SM SCT060 BKN070 10/01 A2984 RMK A01
KCAV 231715Z AUTO 06008KT 10SM OVC075 10/01 A2984 RMK A01
KCAV 231655Z AUTO 07011KT 10SM SCT080 BKN090 10/01 A2983 RMK A01
KCAV 231635Z AUTO 09010KT 10SM BKN090 10/01 A2984 RMK A01
KCAV 231615Z AUTO 08008KT 10SM CLR 10/01 A2984 RMK A01
KCAV 231555Z AUTO 05008KT 10SM CLR 09/01 A2985 RMK A01
KCAV 231535Z AUTO 07009KT 10SM BKN090 08/02 A2985 RMK A01
KCAV 231515Z AUTO 07007KT 10SM OVC095 07/02 A2987 RMK A01
KCAV 231455Z AUTO 07004KT 10SM FEW060 SCT080 BKN095 06/03 A2987 RMK A01
KCAV 231435Z AUTO 07005KT 10SM OVC080 06/03 A2987 RMK A01
KCAV 231415Z AUTO 07003KT 10SM OVC080 05/02 A2986 RMK A01
KCAV 231355Z AUTO 07003KT 10SM FEW070 OVC080 04/02 A2986 RMK A01
KCAV 231335Z AUTO 11003KT 10SM FEW049 SCT065 BKN090 04/02 A2986 RMK A01
KCAV 231315Z AUTO 00000KT 10SM SCT080 OVC090 03/02 A2986 RMK A01
KCAV 231255Z AUTO 08005KT 10SM BKN075 OVC095 03/02 A2984 RMK A01
KCAV 231235Z AUTO 09004KT 10SM BKN075 OVC095 02/01 A2984 RMK A01
KCAV 231215Z AUTO 00000KT 10SM BKN075 OVC110 02/01 A2984 RMK A01
KCAV 231155Z AUTO 00000KT 10SM FEW075 BKN100 BKN120 01/01 A2984 RMK A01
KCAV 231135Z AUTO 00000KT 10SM SCT085 SCT110 01/01 A2983 RMK A01
KCAV 231115Z AUTO 00000KT 10SM OVC080 02/01 A2983 RMK A01
KCAV 231055Z AUTO 00000KT 10SM OVC080 01/00 A2983 RMK A01
KCAV 231035Z AUTO 00000KT 10SM FEW070 OVC090 00/M00 A2983 RMK A01
KCAV 231015Z AUTO 00000KT 10SM SCT070 OVC100 00/M00 A2983 RMK A01
KCAV 230955Z AUTO 00000KT 10SM OVC100 01/M00 A2983 RMK A01
KCAV 230935Z AUTO 15003KT 10SM FEW080 OVC110 01/M00 A2983 RMK A01
KCAV 230915Z AUTO 00000KT 10SM FEW080 OVC110 00/M00 A2983 RMK A01
KCAV 230855Z AUTO 20003KT 10SM OVC110 M00/M01 A2984 RMK A01
KCAV 230835Z AUTO 18004KT 10SM BKN110 M01/M01 A2984 RMK A01
KCAV 230815Z AUTO 19004KT 10SM CLR M00/M01 A2984 RMK A01
KCAV 230755Z AUTO 20004KT 10SM CLR 00/M01 A2983 RMK A01
KCAV 230735Z AUTO 19004KT 10SM CLR 01/M00 A2983 RMK A01
KCAV 230715Z AUTO 19004KT 10SM CLR 01/M00 A2982 RMK A01
KCAV 230655Z AUTO 20005KT 10SM CLR 01/M00 A2982 RMK A01
KCAV 230615Z AUTO 21003KT 10SM CLR 01/M00 A2981 RMK A01
KCAV 230555Z AUTO 24004KT 10SM CLR 01/M00 A2981 RMK A01
KCAV 230535Z AUTO 23004KT 10SM CLR 01/M01 A2982 RMK A01
KCAV 230515Z AUTO 22004KT 10SM CLR 01/M01 A2981 RMK A01
KCAV 230455Z AUTO 23005KT 10SM CLR 01/M00 A2982 RMK A01
KCAV 230435Z AUTO 23004KT 10SM CLR 01/M01 A2982 RMK A01
KCAV 230415Z AUTO 25004KT 10SM CLR 02/M00 A2982 RMK A01
KCAV 230355Z AUTO 24003KT 10SM CLR 02/00 A2982 RMK A01
KCAV 230335Z AUTO 25004KT 10SM CLR 03/00 A2982 RMK A01
KCAV 230315Z AUTO 26006KT 10SM CLR 03/00 A2982 RMK A01
KCAV 230255Z AUTO 25008KT 10SM CLR 03/01 A2982 RMK A01
KCAV 230235Z AUTO 25007KT 10SM CLR 03/00 A2981 RMK A01
KCAV 230215Z AUTO 25007KT 10SM FEW065 03/00 A2981 RMK A01
KCAV 230155Z AUTO 25007KT 10SM CLR 04/00 A2981 RMK A01
KCAV 230135Z AUTO 25008KT 10SM CLR 04/M00 A2981 RMK A01
KCAV 230115Z AUTO 25008KT 10SM CLR 05/M00 A2981 RMK A01
KCAV 230055Z AUTO 26009KT 10SM CLR 05/M00 A2981 RMK A01
KCAV 230035Z AUTO 26009KT 10SM CLR 05/00 A2981 RMK A01
KCAV 230015Z AUTO 27010KT 10SM CLR 06/M00 A2980 RMK A01
KCAV 222355Z AUTO 29011KT 10SM FEW065 07/M01 A2980 RMK A01
KCAV 222335Z AUTO 29013KT 10SM FEW060 08/M01 A2979 RMK A01
KCAV 222315Z AUTO 29018G24KT 10SM FEW060 09/M02 A2979 RMK A01
KCAV 222255Z AUTO 29021G28KT 9SM SCT060 09/M02 A2978 RMK A01
KCAV 222235Z AUTO 29019G27KT 10SM FEW060 10/M01 A2977 RMK A01
KCAV 222215Z AUTO 29023G32KT 9SM FEW055 10/M01 A2977 RMK A01
KCAV 222155Z AUTO 29024G29KT 7SM FEW055 10/M01 A2977 RMK A01
KCAV 222135Z AUTO 30022G31KT 10SM FEW055 10/M01 A2976 RMK A01
KCAV 222115Z AUTO 30020G29KT 10SM SCT050 10/M00 A2975 RMK A01
KCAV 222055Z AUTO 28027KT 10SM FEW050 10/M01 A2975 RMK A01
KCAV 222035Z AUTO 30022G32KT 10SM FEW050 10/M01 A2974 RMK A01
KCAV 222015Z AUTO 29024G35KT 10SM CLR 11/M01 A2973 RMK A01
KCAV 221955Z AUTO 30023G33KT 10SM CLR 11/M01 A2973 RMK A01
KCAV 221935Z AUTO 30024G36KT 5SM HZ CLR 10/M01 A2972 RMK A01
KCAV 221915Z AUTO 29024G32KT 10SM CLR 10/M01 A2972 RMK A01
KCAV 221855Z AUTO 29027KT 10SM CLR 10/M00 A2971 RMK A01
KCAV 221835Z AUTO 29024G35KT 10SM CLR 10/01 A2971 RMK A01
KCAV 221815Z AUTO 29023G34KT 10SM CLR 09/01 A2971 RMK A01
KCAV 221755Z AUTO 28021G33KT 8SM CLR 09/02 A2971 RMK A01
KCAV 221735Z AUTO 28026G32KT 9SM SCT032 08/02 A2971 RMK A01
KCAV 221715Z AUTO 28026G34KT 10SM OVC030 08/02 A2971 RMK A01
KCAV 221655Z AUTO 29022G33KT 10SM OVC028 07/02 A2971 RMK A01
KCAV 221635Z AUTO 29021G30KT 10SM BKN025 OVC029 07/02 A2970 RMK A01
KCAV 221615Z AUTO 29026G33KT 10SM BKN024 OVC029 06/02 A2970 RMK A01
KCAV 221555Z AUTO 29021G31KT OVC021 05/02 A2969 RMK A01
KCAV 221535Z AUTO 29021G29KT 9SM OVC019 05/02 A2969 RMK A01
KCAV 221515Z AUTO 28023G29KT 10SM OVC018 05/02 A2968 RMK A01
KCAV 221455Z AUTO 28019G28KT 10SM OVC019 05/03 A2967 RMK A01
KCAV 221435Z AUTO 28021G29KT 10SM OVC018 05/03 A2967 RMK A01
KCAV 221415Z AUTO 29021G28KT 10SM OVC018 05/03 A2966 RMK A01
KCAV 221355Z AUTO 28019G28KT 10SM OVC017 05/03 A2965 RMK A01
KCAV 221335Z AUTO 28019G26KT 10SM OVC018 05/03 A2964 RMK A01
KCAV 221315Z AUTO 29017G29KT 10SM OVC018 05/03 A2963 RMK A01
KCAV 221255Z AUTO 29020G30KT 10SM OVC018 05/03 A2961 RMK A01
KCAV 221235Z AUTO 29021G29KT 10SM OVC019 05/03 A2961 RMK A01
KCAV 221215Z AUTO 29023G28KT 10SM OVC020 05/03 A2960 RMK A01